Time;durP1;ratioP1;P1;durP2;ratioP2;P2;SDS_P1;SDS_P2;PMS_P1;PMS_P2;Temp;Humidity;BMP_temperature;BMP_pressure;BME280_temperature;BME280_humidity;BME280_pressure;Samples;Min_cycle;Max_cycle;Signal;HPM_P1;HPM_P2
2022/12/11 00:01:15;;;;;;;11.60;8.50;;;-0.60;99.90;;;-141.84;72.41;18549.91;5052047;28;20783;-61
2022/12/11 00:03:44;;;;;;;10.83;8.17;;;-0.60;99.90;;;-141.84;73.51;18568.19;5052025;28;20633;-60
2022/12/11 00:06:15;;;;;;;12.60;8.93;;;-0.60;99.90;;;-141.84;72.79;18525.53;5051958;28;20567;-61
2022/12/11 00:08:44;;;;;;;13.03;8.00;;;-0.50;99.90;;;-141.84;73.16;18537.72;5052168;28;20233;-61
2022/12/11 00:11:15;;;;;;;12.33;8.23;;;-0.60;99.90;;;-141.84;72.76;18582.44;5052574;28;20205;-60
2022/12/11 00:13:43;;;;;;;11.93;8.37;;;-0.60;99.90;;;-141.84;73.77;18566.16;5051781;28;20233;-61
2022/12/11 00:16:13;;;;;;;9.93;7.70;;;-0.60;99.90;;;-141.84;74.56;18533.66;5051789;28;20233;-61
2022/12/11 00:18:41;;;;;;;11.93;7.80;;;-0.70;99.90;;;-141.84;74.85;18556.00;5051632;28;20221;-61
2022/12/11 00:21:14;;;;;;;11.63;8.10;;;-0.80;99.90;;;-141.84;73.34;18549.91;5052053;28;20220;-61
2022/12/11 00:23:42;;;;;;;11.33;7.73;;;-0.70;99.90;;;-141.84;72.70;18568.19;5051809;28;20275;-60
2022/12/11 00:26:14;;;;;;;10.73;7.43;;;-0.60;99.90;;;-141.84;74.01;18515.38;5052237;28;20193;-61
2022/12/11 00:28:44;;;;;;;10.97;7.77;;;-0.70;99.90;;;-141.84;74.10;18558.03;5051178;28;20225;-61
2022/12/11 00:31:20;;;;;;;10.53;7.53;;;-0.70;99.90;;;-141.84;72.95;18580.41;5051087;28;20286;-61
2022/12/11 00:33:49;;;;;;;10.97;7.77;;;-0.60;99.90;;;-141.84;73.08;18564.13;5049245;28;20312;-61
2022/12/11 00:36:20;;;;;;;9.97;7.30;;;-0.70;99.90;;;-141.84;74.10;18531.63;5051604;28;20247;-61
2022/12/11 00:38:49;;;;;;;11.27;8.00;;;-0.80;99.90;;;-141.84;74.01;18535.69;5051470;28;20232;-60
2022/12/11 00:41:18;;;;;;;10.57;7.17;;;-0.80;99.90;;;-141.84;72.83;18553.97;5052225;28;20201;-60
2022/12/11 00:43:47;;;;;;;11.33;8.03;;;-0.70;99.90;;;-141.84;73.38;18558.03;5054804;28;20722;-61
2022/12/11 00:46:16;;;;;;;10.07;7.00;;;-0.80;99.90;;;-141.84;73.78;18562.09;5070724;28;20229;-60
2022/12/11 00:48:45;;;;;;;9.53;6.77;;;-0.80;99.90;;;-141.84;73.06;18543.81;5070729;28;20238;-60
2022/12/11 00:51:13;;;;;;;9.10;7.00;;;-0.80;99.90;;;-141.84;72.75;18556.00;5071027;28;20266;-60
2022/12/11 00:53:41;;;;;;;9.43;7.00;;;-0.80;99.90;;;-141.84;72.70;18560.06;5070650;28;20240;-60
2022/12/11 00:56:15;;;;;;;10.33;7.97;;;-0.80;99.90;;;-141.84;71.93;18560.06;5071768;28;20214;-60
2022/12/11 00:58:44;;;;;;;10.53;6.73;;;-0.80;99.90;;;-141.84;72.46;18580.41;5066834;28;20613;-61
2022/12/11 01:01:17;;;;;;;10.40;7.50;;;-0.90;99.90;;;-141.84;71.49;18574.28;5051043;28;20225;-61
2022/12/11 01:03:46;;;;;;;10.00;6.63;;;-0.80;99.90;;;-141.84;71.68;18566.16;5050919;28;20782;-61
2022/12/11 01:06:17;;;;;;;10.33;7.40;;;-0.80;99.90;;;-141.84;71.19;18533.66;5051058;28;20229;-61
2022/12/11 01:08:46;;;;;;;9.03;6.50;;;-0.70;99.90;;;-141.84;72.09;18582.44;5047721;28;20225;-64
2022/12/11 01:11:17;;;;;;;10.27;6.57;;;-0.70;99.90;;;-141.84;71.59;18564.13;5031785;28;20202;-64
2022/12/11 01:13:45;;;;;;;10.77;7.00;;;-0.70;99.90;;;-141.84;71.61;18574.28;5030967;28;20236;-64
2022/12/11 01:16:16;;;;;;;10.27;6.97;;;-0.80;99.90;;;-141.84;71.83;18568.19;5030752;28;20230;-64
2022/12/11 01:18:44;;;;;;;9.00;6.87;;;-0.80;99.90;;;-141.84;72.34;18517.41;5030746;28;20843;-64
2022/12/11 01:21:14;;;;;;;10.60;7.23;;;-0.90;99.90;;;-141.84;71.31;18566.16;5030988;28;20278;-65
2022/12/11 01:23:42;;;;;;;10.87;7.57;;;-0.80;99.90;;;-141.84;71.78;18560.06;5030908;28;20227;-63
2022/12/11 01:26:13;;;;;;;10.70;6.87;;;-0.90;99.90;;;-141.84;72.54;18539.75;5031614;28;20221;-64
2022/12/11 01:28:42;;;;;;;10.43;7.70;;;-0.90;99.90;;;-141.84;71.69;18586.50;5030537;28;20287;-64
2022/12/11 01:31:14;;;;;;;10.00;7.37;;;-0.90;99.90;;;-141.84;71.46;18562.09;5030426;28;20645;-65
2022/12/11 01:33:44;;;;;;;12.67;7.60;;;-0.80;99.90;;;-141.84;72.22;18560.06;5030346;28;20325;-65
2022/12/11 01:36:16;;;;;;;11.57;7.67;;;-0.90;99.90;;;-141.84;72.68;18545.84;5030205;28;20580;-65
2022/12/11 01:38:45;;;;;;;11.63;7.47;;;-0.90;99.90;;;-141.84;72.11;18553.97;5030464;28;20229;-65
2022/12/11 01:41:14;;;;;;;11.30;7.80;;;-1.00;99.90;;;-141.84;72.84;18549.91;5031521;28;20616;-59
2022/12/11 01:44:02;;;;;;;11.57;7.13;;;-1.00;99.90;;;-141.84;72.71;18578.38;5030697;28;20619;-62
2022/12/11 01:46:32;;;;;;;11.70;6.87;;;-0.90;99.90;;;-141.84;73.30;18549.91;5030892;28;20234;-61
2022/12/11 01:49:07;;;;;;;9.37;6.87;;;-1.00;99.90;;;-141.84;74.11;18551.94;5030482;28;20237;-61
2022/12/11 01:51:40;;;;;;;10.13;7.50;;;-1.10;99.90;;;-141.84;73.26;18551.94;5030854;28;20230;-60
2022/12/11 01:54:14;;;;;;;10.10;7.13;;;-1.00;99.90;;;-141.84;72.65;18558.03;5030103;28;20222;-60
2022/12/11 01:56:46;;;;;;;10.30;6.93;;;-1.00;99.90;;;-141.84;73.28;18541.78;5032930;28;20248;-61
2022/12/11 01:59:19;;;;;;;10.60;7.20;;;-1.10;99.90;;;-141.84;73.81;18564.13;5034846;28;20190;-60
2022/12/11 02:01:54;;;;;;;11.87;7.50;;;-1.10;99.90;;;-141.84;73.86;18535.69;5034772;28;20336;-61
2022/12/11 02:04:25;;;;;;;11.37;7.43;;;-1.00;99.90;;;-141.84;74.30;18549.91;5034242;28;20233;-61
2022/12/11 02:06:54;;;;;;;10.80;7.60;;;-1.10;99.90;;;-141.84;75.10;18501.16;5047313;28;20236;-60
2022/12/11 02:09:26;;;;;;;10.93;7.97;;;-1.10;99.90;;;-141.84;74.97;18527.56;5045632;28;20230;-62
2022/12/11 02:12:07;;;;;;;10.93;7.17;;;-1.00;99.90;;;-141.84;74.68;18537.72;5038985;28;20229;-61
2022/12/11 02:14:44;;;;;;;11.33;7.60;;;-1.00;99.90;;;-141.84;74.80;18539.75;5064702;28;20250;-60
2022/12/11 02:17:21;;;;;;;10.50;7.37;;;-1.00;99.90;;;-141.84;72.30;18566.16;5072915;28;20185;-60
2022/12/11 02:20:10;;;;;;;12.00;8.10;;;-0.90;99.90;;;-141.84;72.59;18545.84;5054186;28;20209;-61
2022/12/11 02:23:15;;;;;;;11.87;8.03;;;-1.00;99.90;;;-141.84;73.43;18553.97;5034749;28;20672;-62
2022/12/11 02:25:57;;;;;;;11.80;8.53;;;-1.00;99.90;;;-141.84;72.56;18570.22;5033710;28;20640;-60
2022/12/11 02:28:32;;;;;;;11.97;7.60;;;-0.90;99.90;;;-141.84;73.31;18519.44;5033867;28;20238;-61
2022/12/11 02:31:10;;;;;;;10.07;7.60;;;-1.00;99.90;;;-141.84;72.40;18558.03;5033471;28;20239;-61
2022/12/11 02:33:48;;;;;;;10.87;8.13;;;-0.90;99.90;;;-141.84;72.46;18566.16;5033649;28;20787;-60
2022/12/11 02:36:21;;;;;;;11.90;8.10;;;-0.90;99.90;;;-141.84;73.68;18545.84;5034086;28;20610;-62
2022/12/11 02:38:54;;;;;;;11.43;8.17;;;-0.90;99.90;;;-141.84;74.59;18541.78;5033362;28;20740;-61
2022/12/11 02:41:27;;;;;;;11.00;7.90;;;-1.00;99.90;;;-141.84;75.24;18537.72;5033806;28;20222;-60
2022/12/11 02:43:58;;;;;;;11.77;7.87;;;-1.00;99.90;;;-141.84;75.41;18547.88;5034118;28;20285;-61
2022/12/11 02:46:29;;;;;;;11.30;8.37;;;-0.90;99.90;;;-141.84;74.73;18566.16;5033334;28;20224;-61
2022/12/11 02:48:58;;;;;;;12.23;8.80;;;-0.90;99.90;;;-141.84;74.58;18531.63;5033121;28;20246;-60
2022/12/11 02:51:33;;;;;;;11.33;7.83;;;-0.90;99.90;;;-141.84;74.44;18535.69;5033457;28;20272;-60
2022/12/11 02:54:03;;;;;;;14.03;8.27;;;-1.00;99.90;;;-141.84;74.87;18549.91;5033139;28;20697;-61
2022/12/11 02:56:40;;;;;;;12.13;8.93;;;-0.80;99.90;;;-141.84;75.27;18511.31;5033446;28;20213;-62
2022/12/11 02:59:18;;;;;;;13.83;8.63;;;-1.10;99.90;;;-141.84;75.78;18517.41;5033402;28;20204;-61
2022/12/11 03:01:47;;;;;;;14.20;8.47;;;-1.10;99.90;;;-141.84;75.93;18519.44;5053266;28;20554;-60
2022/12/11 03:04:15;;;;;;;12.47;8.17;;;-1.10;99.90;;;-141.84;75.99;18488.97;5037303;28;20650;-60
2022/12/11 03:06:51;;;;;;;11.37;8.60;;;-1.10;99.90;;;-141.84;75.43;18547.88;5032768;28;20226;-62
2022/12/11 03:09:20;;;;;;;11.87;8.63;;;-1.00;99.90;;;-141.84;74.83;18543.81;5040459;28;20692;-61
2022/12/11 03:11:48;;;;;;;11.70;8.17;;;-1.00;99.90;;;-141.84;73.75;18513.34;5048854;28;20652;-61
2022/12/11 03:14:18;;;;;;;13.33;8.77;;;-1.00;99.90;;;-141.84;73.60;18511.31;5033814;28;20208;-61
2022/12/11 03:16:56;;;;;;;12.13;8.37;;;-1.00;99.90;;;-141.84;72.75;18535.69;5053019;28;20220;-60
2022/12/11 03:19:34;;;;;;;10.67;7.43;;;-1.00;99.90;;;-141.84;72.02;18580.41;5052647;28;20229;-62
2022/12/11 03:22:15;;;;;;;11.10;8.03;;;-1.10;99.90;;;-141.84;71.46;18560.06;5052442;28;20229;-60
2022/12/11 03:24:50;;;;;;;11.00;7.93;;;-1.10;99.90;;;-141.84;70.11;18574.28;5052504;28;20278;-61
2022/12/11 03:27:30;;;;;;;12.27;8.10;;;-1.10;99.90;;;-141.84;68.70;18576.31;5038462;28;20223;-61
2022/12/11 03:30:04;;;;;;;9.80;7.70;;;-1.00;99.90;;;-141.84;67.54;18612.91;5032567;28;20776;-61
2022/12/11 03:32:41;;;;;;;9.43;7.30;;;-1.10;99.90;;;-141.84;66.24;18604.78;5032376;28;20618;-64
2022/12/11 03:35:18;;;;;;;10.43;7.57;;;-1.00;99.90;;;-141.84;66.61;18592.59;5033360;28;20197;-65
2022/12/11 03:37:49;;;;;;;11.67;7.77;;;-1.00;99.90;;;-141.84;66.17;18588.53;5032390;28;20356;-66
2022/12/11 03:40:20;;;;;;;11.20;8.10;;;-1.00;99.90;;;-141.84;66.37;18608.84;5032656;28;20575;-64
2022/12/11 03:42:52;;;;;;;11.40;7.67;;;-1.10;99.90;;;-141.84;67.10;18608.84;5032138;28;20238;-65
2022/12/11 03:45:25;;;;;;;10.50;8.40;;;-1.00;99.90;;;-141.84;66.59;18596.66;5057182;28;20236;-64
2022/12/11 03:47:56;;;;;;;9.93;8.10;;;-0.70;99.90;;;-141.84;67.73;18619.00;5072104;28;20290;-64
2022/12/11 03:50:30;;;;;;;11.77;8.87;;;-1.10;99.90;;;-141.84;68.52;18608.84;5072308;28;20208;-64
2022/12/11 03:53:01;;;;;;;11.10;8.00;;;-1.10;99.90;;;-141.84;68.89;18556.00;5072373;28;20224;-64
2022/12/11 03:55:30;;;;;;;11.57;8.87;;;-1.20;99.90;;;-141.84;67.89;18588.53;5064402;28;20243;-64
2022/12/11 03:57:59;;;;;;;11.57;8.30;;;-1.20;99.90;;;-141.84;68.53;18580.41;5052203;28;20233;-65
2022/12/11 04:00:29;;;;;;;12.17;8.97;;;-1.20;99.90;;;-141.84;68.94;18576.31;5051710;28;20609;-64
2022/12/11 04:03:13;;;;;;;9.90;7.63;;;-1.20;99.90;;;-141.84;67.22;18602.75;5051962;28;20231;-65
2022/12/11 04:05:44;;;;;;;10.03;7.60;;;-1.10;99.90;;;-141.84;66.32;18627.13;5052099;28;20233;-64
2022/12/11 04:08:13;;;;;;;8.77;6.87;;;-1.10;99.90;;;-141.84;65.64;18608.84;5052449;28;20197;-64
2022/12/11 04:10:42;;;;;;;10.60;8.17;;;-1.10;99.90;;;-141.84;65.83;18635.25;5051699;28;20291;-66
2022/12/11 04:13:11;;;;;;;10.43;7.20;;;-1.10;99.90;;;-141.84;66.27;18621.03;5036484;28;20234;-65
2022/12/11 04:15:40;;;;;;;9.57;7.67;;;-1.10;99.90;;;-141.84;66.82;18614.94;5018894;28;20865;-65
2022/12/11 04:26:27;;;;;;;9.43;7.47;;;-1.20;99.90;;;-141.84;64.79;18641.34;5031569;28;20243;-65
2022/12/11 04:28:55;;;;;;;10.90;7.50;;;-1.10;99.90;;;-141.84;65.25;18619.00;5031958;28;20677;-64
2022/12/11 04:31:25;;;;;;;9.67;7.13;;;-1.10;99.90;;;-141.84;65.12;18647.44;5031785;28;20225;-64
2022/12/11 04:33:53;;;;;;;8.87;7.37;;;-1.10;99.90;;;-141.84;64.69;18667.75;5031750;28;20319;-65
2022/12/11 04:36:21;;;;;;;8.87;7.00;;;-1.10;99.90;;;-141.84;65.66;18616.97;5031646;28;20621;-64
2022/12/11 04:38:49;;;;;;;10.60;7.37;;;-1.10;99.90;;;-141.84;65.06;18669.78;5031517;28;20229;-64
2022/12/11 04:41:18;;;;;;;10.73;8.13;;;-1.10;99.90;;;-141.84;64.90;18619.00;5032140;28;20198;-66
2022/12/11 04:43:46;;;;;;;9.33;7.20;;;-1.10;99.90;;;-141.84;64.92;18641.34;5031706;28;20713;-63
2022/12/11 04:46:18;;;;;;;10.80;7.37;;;-1.10;99.90;;;-141.84;64.53;18619.00;5031435;28;20237;-64
2022/12/11 04:48:49;;;;;;;9.77;7.57;;;-1.20;99.90;;;-141.84;64.87;18629.16;5042939;28;20717;-65
2022/12/11 04:51:25;;;;;;;9.27;7.07;;;-1.20;99.90;;;-141.84;64.90;18614.94;5051085;28;20217;-64
2022/12/11 04:53:53;;;;;;;9.30;7.67;;;-1.30;99.90;;;-141.84;65.25;18614.94;5046561;28;20230;-66
2022/12/11 04:56:22;;;;;;;9.53;7.40;;;-1.30;99.90;;;-141.84;64.81;18629.16;5031438;28;20209;-65
2022/12/11 04:58:50;;;;;;;8.67;6.73;;;-1.30;99.90;;;-141.84;64.06;18647.44;5051231;28;20201;-61
2022/12/11 05:01:21;;;;;;;10.00;7.13;;;-1.30;99.90;;;-141.84;64.55;18753.09;5034820;28;20693;-61
2022/12/11 05:03:51;;;;;;;8.10;6.37;;;-1.30;99.90;;;-141.84;64.46;18655.56;5043256;28;20272;-62
2022/12/11 05:06:19;;;;;;;9.70;7.47;;;-1.40;99.90;;;-141.84;65.63;18633.22;5051231;28;20225;-62
2022/12/11 05:08:47;;;;;;;9.57;7.00;;;-1.30;99.90;;;-141.84;65.22;18649.47;5047404;28;20225;-61
2022/12/11 05:11:16;;;;;;;8.20;6.93;;;-1.30;99.90;;;-141.84;63.93;18653.53;5031421;28;20226;-61
2022/12/11 05:13:45;;;;;;;7.90;6.57;;;-1.40;99.90;;;-141.84;65.21;18606.81;5030683;28;20244;-61
2022/12/11 05:16:16;;;;;;;7.50;6.70;;;-1.40;99.90;;;-141.84;64.86;18645.41;5030992;28;20233;-60
2022/12/11 05:18:46;;;;;;;8.20;6.97;;;-1.40;99.90;;;-141.84;64.87;18647.44;5030681;28;20226;-60
2022/12/11 05:21:16;;;;;;;7.80;6.57;;;-1.40;99.90;;;-141.84;66.07;18635.25;5030390;28;20772;-61
2022/12/11 05:23:44;;;;;;;8.20;6.37;;;-1.40;99.90;;;-141.84;65.62;18623.06;5030357;28;20229;-61
2022/12/11 05:26:16;;;;;;;8.17;6.80;;;-1.40;99.90;;;-141.84;64.46;18639.31;5031157;28;20197;-61
2022/12/11 05:28:46;;;;;;;9.33;6.97;;;-1.40;99.90;;;-141.84;65.04;18639.31;5030222;28;20230;-61
2022/12/11 05:31:17;;;;;;;8.43;6.80;;;-1.30;99.90;;;-141.84;64.40;18647.44;5032729;28;20291;-61
2022/12/11 05:33:47;;;;;;;9.37;6.30;;;-1.30;99.90;;;-141.84;65.16;18637.28;5034864;28;20256;-60
2022/12/11 05:36:20;;;;;;;8.97;6.80;;;-1.30;99.90;;;-141.84;66.21;18637.28;5035375;28;20230;-61
2022/12/11 05:38:48;;;;;;;8.50;7.27;;;-1.30;99.90;;;-141.84;65.96;18606.81;5034757;28;20229;-60
2022/12/11 05:41:20;;;;;;;9.53;6.73;;;-1.40;99.90;;;-141.84;64.72;18625.09;5035253;28;20659;-61
2022/12/11 05:43:48;;;;;;;8.37;7.10;;;-1.40;99.90;;;-141.84;65.35;18665.72;5054623;28;20223;-60
2022/12/11 05:46:19;;;;;;;8.70;7.07;;;-1.40;99.90;;;-141.84;65.18;18645.41;5054191;28;20281;-61
2022/12/11 05:48:54;;;;;;;10.37;7.37;;;-1.40;99.90;;;-141.84;65.31;18649.47;5054259;28;20264;-61
2022/12/11 05:51:23;;;;;;;10.53;7.50;;;-1.30;99.90;;;-141.84;66.36;18641.34;5054669;28;20283;-62
2022/12/11 05:53:53;;;;;;;10.27;7.17;;;-1.40;99.90;;;-141.84;66.57;18612.91;5054326;28;20726;-61
2022/12/11 05:56:26;;;;;;;10.33;6.67;;;-1.40;99.90;;;-141.84;65.34;18621.03;5054336;28;20203;-60
2022/12/11 05:58:55;;;;;;;10.10;7.00;;;-1.30;99.90;;;-141.84;66.36;18641.34;5054364;28;20186;-60
2022/12/11 06:01:26;;;;;;;9.63;7.07;;;-1.40;99.90;;;-141.84;65.94;18614.94;5054162;28;20282;-61
2022/12/11 06:03:56;;;;;;;8.10;6.80;;;-1.40;99.90;;;-141.84;66.66;18625.09;5054024;28;20221;-62
2022/12/11 06:06:27;;;;;;;9.63;6.93;;;-1.50;99.90;;;-141.84;66.39;18627.13;5054362;28;20224;-62
2022/12/11 06:08:57;;;;;;;8.23;6.40;;;-1.40;99.90;;;-141.84;67.47;18616.97;5054227;28;20229;-61
2022/12/11 06:11:28;;;;;;;8.77;6.67;;;-1.40;99.90;;;-141.84;68.57;18625.09;5054276;28;20205;-61
2022/12/11 06:13:57;;;;;;;8.40;6.10;;;-1.40;99.90;;;-141.84;68.65;18612.91;5054446;28;20209;-61
2022/12/11 06:16:25;;;;;;;9.80;6.70;;;-1.40;99.90;;;-141.84;69.04;18584.47;5054199;28;20252;-60
2022/12/11 06:18:54;;;;;;;9.07;6.13;;;-1.40;99.90;;;-141.84;69.19;18596.66;5054015;28;20257;-60
2022/12/11 06:21:30;;;;;;;9.30;6.23;;;-1.40;99.90;;;-141.84;69.57;18629.16;5053916;28;20715;-62
2022/12/11 06:24:01;;;;;;;10.03;6.53;;;-1.50;99.90;;;-141.84;69.69;18594.63;5053505;28;20225;-63
2022/12/11 06:26:30;;;;;;;8.40;5.97;;;-1.50;99.90;;;-141.84;70.01;18584.47;5054069;28;20188;-60
2022/12/11 06:28:59;;;;;;;9.90;6.60;;;-1.50;99.90;;;-141.84;70.47;18586.50;5053814;28;20209;-61
2022/12/11 06:31:27;;;;;;;9.07;6.30;;;-1.50;99.90;;;-141.84;70.67;18596.66;5053613;28;20701;-60
2022/12/11 06:33:55;;;;;;;9.57;6.00;;;-1.40;99.90;;;-141.84;68.88;18598.69;5053567;28;20275;-61
2022/12/11 06:36:25;;;;;;;8.53;5.80;;;-1.40;99.90;;;-141.84;69.78;18619.00;5053601;28;20225;-61
2022/12/11 06:38:55;;;;;;;9.53;6.60;;;-1.40;99.90;;;-141.84;68.91;18633.22;5053552;28;20232;-59
2022/12/11 06:41:23;;;;;;;9.00;6.27;;;-1.40;99.90;;;-141.84;69.09;18629.16;5053797;28;20194;-59
2022/12/11 06:43:51;;;;;;;11.23;6.60;;;-1.50;99.90;;;-141.84;69.82;18635.25;5053804;28;20263;-61
2022/12/11 06:46:20;;;;;;;7.57;5.83;;;-1.50;99.90;;;-141.84;70.03;18619.00;5053537;28;20233;-62
2022/12/11 06:48:49;;;;;;;8.77;6.33;;;-1.50;99.90;;;-141.84;69.78;18606.81;5053485;28;20320;-61
2022/12/11 06:51:20;;;;;;;8.93;6.43;;;-1.60;99.90;;;-141.84;69.09;18594.63;5053436;28;20558;-59
2022/12/11 06:53:54;;;;;;;9.57;6.63;;;-1.50;99.90;;;-141.84;69.49;18584.47;5053485;28;20222;-60
2022/12/11 06:56:24;;;;;;;10.50;6.60;;;-1.50;99.90;;;-141.84;69.41;18586.50;5053251;28;20687;-60
2022/12/11 06:58:52;;;;;;;8.43;6.13;;;-1.50;99.90;;;-141.84;68.96;18612.91;5053596;28;20198;-61
2022/12/11 07:01:23;;;;;;;9.50;6.50;;;-1.40;99.90;;;-141.84;69.59;18612.91;5053333;28;20222;-61
2022/12/11 07:03:53;;;;;;;9.53;6.40;;;-1.40;99.90;;;-141.84;69.17;18606.81;5053593;28;20228;-61
2022/12/11 07:06:22;;;;;;;8.97;6.37;;;-1.30;99.90;;;-141.84;68.61;18621.03;5053434;28;20229;-61
2022/12/11 07:08:52;;;;;;;8.37;5.83;;;-1.30;99.90;;;-141.84;68.71;18602.75;5052978;28;20232;-61
2022/12/11 07:11:21;;;;;;;7.97;6.23;;;-1.30;99.90;;;-141.84;69.75;18600.72;5053553;28;20229;-61
2022/12/11 07:13:49;;;;;;;9.43;6.23;;;-1.40;99.90;;;-141.84;70.90;18631.19;5053366;28;20233;-62
2022/12/11 07:16:19;;;;;;;9.50;6.40;;;-1.50;99.90;;;-141.84;70.60;18592.59;5052915;28;20717;-61
2022/12/11 07:18:49;;;;;;;8.97;6.20;;;-1.50;99.90;;;-141.84;68.37;18619.00;5053307;28;20229;-60
2022/12/11 07:21:20;;;;;;;9.07;6.00;;;-1.30;99.90;;;-141.84;67.86;18604.78;5052830;28;20225;-61
2022/12/11 07:23:49;;;;;;;8.70;6.17;;;-1.30;99.90;;;-141.84;68.01;18623.06;5052899;28;20225;-61
2022/12/11 07:26:21;;;;;;;10.00;6.07;;;-1.30;99.90;;;-141.84;69.23;18598.69;5053622;28;20205;-61
2022/12/11 07:28:50;;;;;;;8.57;5.93;;;-1.30;99.90;;;-141.84;70.04;18635.25;5053374;28;20221;-60
2022/12/11 07:31:23;;;;;;;9.30;6.40;;;-1.30;99.90;;;-141.84;69.01;18623.06;5052402;28;20237;-61
2022/12/11 07:33:54;;;;;;;9.60;7.07;;;-1.30;99.90;;;-141.84;68.67;18614.94;5052811;28;20226;-61
2022/12/11 07:36:23;;;;;;;8.80;6.53;;;-1.40;99.90;;;-141.84;69.64;18627.13;5052537;28;20224;-61
2022/12/11 07:38:54;;;;;;;9.43;6.47;;;-1.40;99.90;;;-141.84;70.08;18610.88;5052608;28;20782;-60
2022/12/11 07:41:24;;;;;;;9.50;6.77;;;-1.40;99.90;;;-141.84;70.50;18594.63;5052326;28;20198;-61
2022/12/11 07:43:52;;;;;;;9.43;6.73;;;-1.30;99.90;;;-141.84;70.88;18578.38;5052884;28;20209;-61
2022/12/11 07:46:23;;;;;;;10.80;7.37;;;-1.30;99.90;;;-141.84;69.36;18598.69;5052028;28;20234;-61
2022/12/11 07:48:51;;;;;;;9.80;7.07;;;-1.30;99.90;;;-141.84;68.59;18612.91;5052105;28;20227;-61
2022/12/11 07:51:25;;;;;;;9.77;6.57;;;-1.30;99.90;;;-141.84;69.08;18627.13;5052270;28;20225;-61
2022/12/11 07:53:56;;;;;;;9.63;6.53;;;-1.20;99.90;;;-141.84;69.81;18594.63;5051516;28;20221;-61
2022/12/11 07:56:27;;;;;;;7.27;5.97;;;-1.20;99.90;;;-141.84;70.18;18637.28;5052057;28;20208;-61
2022/12/11 07:58:58;;;;;;;9.83;7.07;;;-1.20;99.90;;;-141.84;68.71;18594.63;5052627;28;20200;-62
2022/12/11 08:01:29;;;;;;;9.00;6.63;;;-1.10;99.90;;;-141.84;68.41;18627.13;5052074;28;20225;-62
2022/12/11 08:03:58;;;;;;;8.40;5.93;;;-1.20;99.90;;;-141.84;68.33;18623.06;5052214;28;20258;-62
2022/12/11 08:06:29;;;;;;;8.83;6.47;;;-1.10;99.90;;;-141.84;68.47;18629.16;5052230;28;20802;-61
2022/12/11 08:09:00;;;;;;;8.37;6.27;;;-1.10;99.90;;;-141.84;68.17;18659.63;5052165;28;20229;-62
2022/12/11 08:11:30;;;;;;;9.20;6.90;;;-1.10;99.90;;;-141.84;68.82;18631.19;5051872;28;20246;-61
2022/12/11 08:13:59;;;;;;;8.90;6.57;;;-1.10;99.90;;;-141.84;69.25;18629.16;5052249;28;20728;-61
2022/12/11 08:16:28;;;;;;;9.90;6.93;;;-1.10;99.90;;;-141.84;69.48;18606.81;5051645;28;20221;-60
2022/12/11 08:18:56;;;;;;;10.77;7.37;;;-1.10;99.90;;;-141.84;69.63;18623.06;5051744;28;20289;-61
2022/12/11 08:21:27;;;;;;;11.93;8.17;;;-1.00;99.90;;;-141.84;69.11;18669.78;5051631;28;20225;-61
2022/12/11 08:23:56;;;;;;;11.37;7.87;;;-0.90;99.90;;;-141.84;68.56;18643.38;5051717;28;20602;-61
2022/12/11 08:26:30;;;;;;;12.83;8.37;;;-0.90;99.90;;;-141.84;68.24;18621.03;5051572;28;20254;-62
2022/12/11 08:29:00;;;;;;;10.60;7.37;;;-1.00;99.90;;;-141.84;68.36;18659.63;5052141;28;20189;-61
2022/12/11 08:31:29;;;;;;;12.40;7.90;;;-0.90;99.90;;;-141.84;68.47;18608.84;5051011;28;20231;-61
2022/12/11 08:33:58;;;;;;;11.50;8.00;;;-0.80;99.90;;;-141.84;68.46;18623.06;5051533;28;20231;-61
2022/12/11 08:36:26;;;;;;;10.23;7.40;;;-0.90;99.90;;;-141.84;67.46;18584.47;5051407;28;20305;-60
2022/12/11 08:38:56;;;;;;;9.87;6.50;;;-0.80;99.90;;;-141.84;65.32;18631.19;5051436;28;20578;-60
2022/12/11 08:41:27;;;;;;;8.87;6.63;;;-0.70;99.90;;;-141.84;66.15;18667.75;5051001;28;20703;-61
2022/12/11 08:43:59;;;;;;;9.27;6.47;;;-0.70;99.90;;;-141.84;65.07;18635.25;5051993;28;20255;-61
2022/12/11 08:46:30;;;;;;;9.27;6.80;;;-0.70;99.90;;;-141.84;65.16;18665.72;5050819;28;20239;-59
2022/12/11 08:48:59;;;;;;;8.43;6.70;;;-0.60;99.90;;;-141.84;64.71;18704.31;5051360;28;20244;-61
2022/12/11 08:51:31;;;;;;;10.00;6.70;;;-0.60;99.90;;;-141.84;63.84;18684.00;5051168;28;20232;-61
2022/12/11 08:54:01;;;;;;;8.60;6.30;;;-0.50;99.90;;;-141.84;63.24;18655.56;5050949;28;20707;-61
2022/12/11 08:56:30;;;;;;;10.30;6.73;;;-0.60;99.90;;;-141.84;64.74;18673.84;5051612;28;20206;-60
2022/12/11 08:59:03;;;;;;;9.90;6.83;;;-0.60;99.90;;;-141.84;65.26;18655.56;5047023;28;20204;-60
2022/12/11 09:01:31;;;;;;;9.00;6.47;;;-0.80;99.90;;;-141.84;65.25;18655.56;5030831;28;20238;-64
2022/12/11 09:03:59;;;;;;;10.50;6.70;;;-0.70;99.90;;;-141.84;63.72;18671.81;5050980;28;20228;-59
2022/12/11 09:06:30;;;;;;;10.40;6.77;;;-0.60;99.90;;;-141.84;63.84;18665.72;5050202;28;20224;-62
2022/12/11 09:09:01;;;;;;;10.50;6.93;;;-0.50;99.90;;;-141.84;63.91;18657.59;5050895;28;20225;-61
2022/12/11 09:11:36;;;;;;;9.03;6.33;;;-0.40;99.90;;;-141.84;65.04;18684.00;5051280;28;20182;-62
2022/12/11 09:14:07;;;;;;;10.07;6.67;;;-0.50;99.90;;;-141.84;65.86;18673.84;5051626;28;20204;-60
2022/12/11 09:16:39;;;;;;;9.97;6.47;;;-0.50;99.90;;;-141.84;64.54;18700.25;5050703;28;20236;-61
2022/12/11 09:19:11;;;;;;;7.53;5.40;;;-0.40;99.90;;;-141.84;64.51;18679.94;5050965;28;20758;-61
2022/12/11 09:21:40;;;;;;;8.37;6.37;;;-0.30;99.90;;;-141.84;65.15;18667.75;5050451;28;20322;-62
2022/12/11 09:24:12;;;;;;;8.77;6.13;;;-0.30;99.90;;;-141.84;63.85;18716.53;5050950;28;20234;-61
2022/12/11 09:26:41;;;;;;;10.83;8.33;;;-0.50;99.90;;;-141.84;62.68;18690.09;5050463;28;20846;-63
2022/12/11 09:29:12;;;;;;;12.30;7.87;;;-0.40;99.90;;;-141.84;63.31;18698.22;5051229;28;20859;-64
2022/12/11 09:31:42;;;;;;;9.67;6.80;;;-0.50;99.90;;;-141.84;63.92;18708.41;5050997;28;20242;-60
2022/12/11 09:34:13;;;;;;;10.97;6.70;;;-0.40;99.90;;;-141.84;64.00;18686.03;5050815;28;20229;-61
2022/12/11 09:36:44;;;;;;;9.57;6.63;;;-0.40;99.90;;;-141.84;63.65;18667.75;5051019;28;20230;-62
2022/12/11 09:39:15;;;;;;;9.37;6.70;;;-0.40;99.90;;;-141.84;62.84;18667.75;5050983;28;20225;-63
2022/12/11 09:41:55;;;;;;;8.40;5.97;;;-0.30;99.90;;;-141.84;62.65;18708.41;5050736;28;20231;-62
2022/12/11 09:44:39;;;;;;;8.90;6.50;;;-0.30;99.90;;;-141.84;63.12;18673.84;5050572;28;20224;-64
2022/12/11 09:47:24;;;;;;;9.33;6.23;;;-0.30;99.90;;;-141.84;62.00;18686.03;5051125;28;20188;-63
2022/12/11 09:50:05;;;;;;;9.70;6.10;;;-0.30;99.90;;;-141.84;62.40;18694.16;5050500;28;20684;-64
2022/12/11 09:52:40;;;;;;;8.77;6.33;;;-0.30;99.90;;;-141.84;63.05;18704.31;5050066;28;20276;-64
2022/12/11 09:55:16;;;;;;;8.43;6.07;;;-0.20;99.90;;;-141.84;62.28;18692.13;5050555;28;20234;-60
2022/12/11 09:57:56;;;;;;;11.80;7.23;;;-0.20;99.90;;;-141.84;61.95;18704.31;5050177;28;20255;-62
2022/12/11 10:00:37;;;;;;;9.53;6.70;;;-0.10;99.90;;;-141.84;62.04;18726.69;5050057;28;20278;-63
2022/12/11 10:03:29;;;;;;;8.33;6.37;;;0.00;99.90;;;-141.84;62.28;18708.41;5050341;28;20217;-63
2022/12/11 10:06:12;;;;;;;7.50;5.50;;;-0.10;99.90;;;-141.84;62.34;18704.31;5050456;28;20274;-63
2022/12/11 10:08:53;;;;;;;9.20;5.97;;;0.00;99.90;;;-141.84;63.17;18740.91;5050193;28;20246;-65
2022/12/11 10:11:42;;;;;;;10.47;6.47;;;-0.10;99.90;;;-141.84;63.21;18712.47;5050418;28;20595;-64
2022/12/11 10:14:22;;;;;;;9.30;6.13;;;0.00;99.90;;;-141.84;62.06;18706.38;5050438;28;20587;-62
2022/12/11 10:16:57;;;;;;;9.70;6.50;;;0.00;99.90;;;-141.84;62.17;18716.53;5031534;28;20658;-61
2022/12/11 10:19:30;;;;;;;8.97;6.33;;;0.00;99.90;;;-141.84;62.43;18742.94;5034073;28;20301;-62
2022/12/11 10:22:01;;;;;;;9.73;6.57;;;0.00;99.90;;;-141.84;63.39;18724.66;5033967;28;20767;-62
2022/12/11 10:24:39;;;;;;;8.87;6.47;;;-0.10;99.90;;;-141.84;64.43;18688.06;5033511;28;20230;-62
2022/12/11 10:27:32;;;;;;;10.97;7.17;;;-0.10;99.90;;;-141.84;64.10;18716.53;5042606;28;20254;-63
2022/12/11 10:30:14;;;;;;;10.30;6.30;;;-0.20;99.90;;;-141.84;63.95;18696.19;5048123;28;20225;-63